sensor_id;sensor_type;location;lat;lon;timestamp;P1;P2;P0
78408;PMS5003;67697;50.750;-3.270;2023-12-04T00:00:01;8;4;
78408;PMS5003;67697;50.750;-3.270;2023-12-04T00:02:27;8;4;
78408;PMS5003;67697;50.750;-3.270;2023-12-04T00:04:53;3;3;
78408;PMS5003;67697;50.750;-3.270;2023-12-04T00:07:18;7;2;
78408;PMS5003;67697;50.750;-3.270;2023-12-04T00:09:44;2;2;
78408;PMS5003;67697;50.750;-3.270;2023-12-04T00:12:10;3;2;
78408;PMS5003;67697;50.750;-3.270;2023-12-04T00:14:35;1;1;
78408;PMS5003;67697;50.750;-3.270;2023-12-04T00:17:01;2;2;
78408;PMS5003;67697;50.750;-3.270;2023-12-04T00:19:27;3;1;
78408;PMS5003;67697;50.750;-3.270;2023-12-04T00:21:52;3;3;
78408;PMS5003;67697;50.750;-3.270;2023-12-04T00:24:18;2;2;
78408;PMS5003;67697;50.750;-3.270;2023-12-04T00:26:44;1;1;
78408;PMS5003;67697;50.750;-3.270;2023-12-04T00:29:10;2;2;
78408;PMS5003;67697;50.750;-3.270;2023-12-04T00:31:35;2;2;
78408;PMS5003;67697;50.750;-3.270;2023-12-04T00:34:01;3;2;
78408;PMS5003;67697;50.750;-3.270;2023-12-04T00:36:27;2;2;
78408;PMS5003;67697;50.750;-3.270;2023-12-04T00:38:52;1;1;
78408;PMS5003;67697;50.750;-3.270;2023-12-04T00:41:18;1;1;
78408;PMS5003;67697;50.750;-3.270;2023-12-04T00:43:44;0;0;
78408;PMS5003;67697;50.750;-3.270;2023-12-04T00:46:10;2;1;
78408;PMS5003;67697;50.750;-3.270;2023-12-04T00:48:35;3;1;
78408;PMS5003;67697;50.750;-3.270;2023-12-04T00:51:01;4;2;
78408;PMS5003;67697;50.750;-3.270;2023-12-04T00:53:26;2;1;
78408;PMS5003;67697;50.750;-3.270;2023-12-04T00:55:52;3;1;
78408;PMS5003;67697;50.750;-3.270;2023-12-04T00:58:18;1;1;
78408;PMS5003;67697;50.750;-3.270;2023-12-04T01:00:44;4;1;
78408;PMS5003;67697;50.750;-3.270;2023-12-04T01:03:09;1;1;
78408;PMS5003;67697;50.750;-3.270;2023-12-04T01:05:35;1;1;
78408;PMS5003;67697;50.750;-3.270;2023-12-04T01:12:52;3;2;
78408;PMS5003;67697;50.750;-3.270;2023-12-04T01:15:18;1;1;
78408;PMS5003;67697;50.750;-3.270;2023-12-04T01:17:43;3;2;
78408;PMS5003;67697;50.750;-3.270;2023-12-04T01:20:09;3;2;
78408;PMS5003;67697;50.750;-3.270;2023-12-04T01:22:35;1;1;
78408;PMS5003;67697;50.750;-3.270;2023-12-04T01:25:01;2;2;
78408;PMS5003;67697;50.750;-3.270;2023-12-04T01:27:26;2;1;
78408;PMS5003;67697;50.750;-3.270;2023-12-04T01:29:52;9;3;
78408;PMS5003;67697;50.750;-3.270;2023-12-04T01:32:18;0;0;
78408;PMS5003;67697;50.750;-3.270;2023-12-04T01:34:43;2;2;
78408;PMS5003;67697;50.750;-3.270;2023-12-04T01:37:09;3;1;
78408;PMS5003;67697;50.750;-3.270;2023-12-04T01:39:34;1;1;
78408;PMS5003;67697;50.750;-3.270;2023-12-04T01:42:00;1;1;
78408;PMS5003;67697;50.750;-3.270;2023-12-04T01:44:26;2;1;
78408;PMS5003;67697;50.750;-3.270;2023-12-04T01:46:52;2;2;
78408;PMS5003;67697;50.750;-3.270;2023-12-04T01:49:17;0;0;
78408;PMS5003;67697;50.750;-3.270;2023-12-04T01:51:43;2;2;
78408;PMS5003;67697;50.750;-3.270;2023-12-04T01:54:09;2;1;
78408;PMS5003;67697;50.750;-3.270;2023-12-04T01:56:34;4;0;
78408;PMS5003;67697;50.750;-3.270;2023-12-04T01:59:00;2;1;
78408;PMS5003;67697;50.750;-3.270;2023-12-04T02:01:26;2;0;
78408;PMS5003;67697;50.750;-3.270;2023-12-04T02:03:52;3;2;
78408;PMS5003;67697;50.750;-3.270;2023-12-04T02:06:17;1;1;
78408;PMS5003;67697;50.750;-3.270;2023-12-04T02:08:43;0;0;
78408;PMS5003;67697;50.750;-3.270;2023-12-04T02:11:09;1;1;
78408;PMS5003;67697;50.750;-3.270;2023-12-04T02:13:34;1;1;
78408;PMS5003;67697;50.750;-3.270;2023-12-04T02:16:01;0;0;
78408;PMS5003;67697;50.750;-3.270;2023-12-04T02:18:26;1;1;
78408;PMS5003;67697;50.750;-3.270;2023-12-04T02:20:52;1;1;
78408;PMS5003;67697;50.750;-3.270;2023-12-04T02:23:17;1;1;
78408;PMS5003;67697;50.750;-3.270;2023-12-04T02:25:43;1;0;
78408;PMS5003;67697;50.750;-3.270;2023-12-04T02:28:10;0;0;
78408;PMS5003;67697;50.750;-3.270;2023-12-04T02:30:35;0;0;
78408;PMS5003;67697;50.750;-3.270;2023-12-04T02:33:00;0;0;
78408;PMS5003;67697;50.750;-3.270;2023-12-04T02:35:26;0;0;
78408;PMS5003;67697;50.750;-3.270;2023-12-04T02:37:51;1;0;
78408;PMS5003;67697;50.750;-3.270;2023-12-04T02:40:17;1;1;
78408;PMS5003;67697;50.750;-3.270;2023-12-04T02:42:43;0;0;
78408;PMS5003;67697;50.750;-3.270;2023-12-04T02:45:08;1;1;
78408;PMS5003;67697;50.750;-3.270;2023-12-04T02:47:34;0;0;
78408;PMS5003;67697;50.750;-3.270;2023-12-04T02:50:00;1;1;
78408;PMS5003;67697;50.750;-3.270;2023-12-04T02:52:25;2;0;
78408;PMS5003;67697;50.750;-3.270;2023-12-04T02:54:51;1;1;
78408;PMS5003;67697;50.750;-3.270;2023-12-04T02:57:17;2;1;
78408;PMS5003;67697;50.750;-3.270;2023-12-04T02:59:42;0;0;
78408;PMS5003;67697;50.750;-3.270;2023-12-04T03:02:08;2;0;
78408;PMS5003;67697;50.750;-3.270;2023-12-04T03:04:34;1;1;
78408;PMS5003;67697;50.750;-3.270;2023-12-04T03:06:59;4;1;
78408;PMS5003;67697;50.750;-3.270;2023-12-04T03:09:25;0;0;
78408;PMS5003;67697;50.750;-3.270;2023-12-04T03:11:51;3;2;
78408;PMS5003;67697;50.750;-3.270;2023-12-04T03:14:16;1;0;
78408;PMS5003;67697;50.750;-3.270;2023-12-04T03:16:42;2;1;
78408;PMS5003;67697;50.750;-3.270;2023-12-04T03:19:08;0;0;
78408;PMS5003;67697;50.750;-3.270;2023-12-04T03:21:33;2;1;
78408;PMS5003;67697;50.750;-3.270;2023-12-04T03:23:59;2;1;
78408;PMS5003;67697;50.750;-3.270;2023-12-04T03:26:25;1;1;
78408;PMS5003;67697;50.750;-3.270;2023-12-04T03:28:50;2;2;
78408;PMS5003;67697;50.750;-3.270;2023-12-04T03:31:16;1;0;
78408;PMS5003;67697;50.750;-3.270;2023-12-04T03:33:41;1;1;
78408;PMS5003;67697;50.750;-3.270;2023-12-04T03:36:07;0;0;
78408;PMS5003;67697;50.750;-3.270;2023-12-04T03:38:33;0;0;
78408;PMS5003;67697;50.750;-3.270;2023-12-04T03:40:58;1;1;
78408;PMS5003;67697;50.750;-3.270;2023-12-04T03:43:24;1;1;
78408;PMS5003;67697;50.750;-3.270;2023-12-04T03:45:50;1;1;
78408;PMS5003;67697;50.750;-3.270;2023-12-04T03:48:15;3;3;
78408;PMS5003;67697;50.750;-3.270;2023-12-04T03:50:41;1;1;
78408;PMS5003;67697;50.750;-3.270;2023-12-04T03:53:07;3;2;
78408;PMS5003;67697;50.750;-3.270;2023-12-04T03:55:32;2;2;
78408;PMS5003;67697;50.750;-3.270;2023-12-04T03:57:58;0;0;
78408;PMS5003;67697;50.750;-3.270;2023-12-04T04:00:23;2;1;
78408;PMS5003;67697;50.750;-3.270;2023-12-04T04:02:49;4;2;
78408;PMS5003;67697;50.750;-3.270;2023-12-04T04:05:15;2;1;
78408;PMS5003;67697;50.750;-3.270;2023-12-04T04:07:40;0;0;
78408;PMS5003;67697;50.750;-3.270;2023-12-04T04:10:06;1;1;
78408;PMS5003;67697;50.750;-3.270;2023-12-04T04:12:31;1;1;
78408;PMS5003;67697;50.750;-3.270;2023-12-04T04:14:57;2;2;
78408;PMS5003;67697;50.750;-3.270;2023-12-04T04:17:23;3;2;
78408;PMS5003;67697;50.750;-3.270;2023-12-04T04:19:48;1;1;
78408;PMS5003;67697;50.750;-3.270;2023-12-04T04:22:14;5;1;
78408;PMS5003;67697;50.750;-3.270;2023-12-04T04:24:40;4;2;
78408;PMS5003;67697;50.750;-3.270;2023-12-04T04:27:05;4;2;
78408;PMS5003;67697;50.750;-3.270;2023-12-04T04:29:31;1;1;
78408;PMS5003;67697;50.750;-3.270;2023-12-04T04:31:56;3;3;
78408;PMS5003;67697;50.750;-3.270;2023-12-04T04:34:22;2;2;
78408;PMS5003;67697;50.750;-3.270;2023-12-04T04:36:48;3;2;
78408;PMS5003;67697;50.750;-3.270;2023-12-04T04:39:13;6;2;
78408;PMS5003;67697;50.750;-3.270;2023-12-04T04:41:39;3;1;
78408;PMS5003;67697;50.750;-3.270;2023-12-04T04:44:04;7;3;
78408;PMS5003;67697;50.750;-3.270;2023-12-04T04:46:30;5;2;
78408;PMS5003;67697;50.750;-3.270;2023-12-04T04:48:56;1;0;
78408;PMS5003;67697;50.750;-3.270;2023-12-04T04:51:21;1;1;
78408;PMS5003;67697;50.750;-3.270;2023-12-04T04:53:47;3;2;
78408;PMS5003;67697;50.750;-3.270;2023-12-04T04:56:13;3;2;
78408;PMS5003;67697;50.750;-3.270;2023-12-04T04:58:38;4;2;
78408;PMS5003;67697;50.750;-3.270;2023-12-04T05:01:04;1;1;
78408;PMS5003;67697;50.750;-3.270;2023-12-04T05:03:30;2;1;
78408;PMS5003;67697;50.750;-3.270;2023-12-04T05:05:55;0;0;
78408;PMS5003;67697;50.750;-3.270;2023-12-04T05:08:21;1;1;
78408;PMS5003;67697;50.750;-3.270;2023-12-04T05:10:46;1;1;
78408;PMS5003;67697;50.750;-3.270;2023-12-04T05:13:13;1;1;
78408;PMS5003;67697;50.750;-3.270;2023-12-04T05:15:38;1;1;
78408;PMS5003;67697;50.750;-3.270;2023-12-04T05:18:03;1;1;
78408;PMS5003;67697;50.750;-3.270;2023-12-04T05:20:29;1;1;
78408;PMS5003;67697;50.750;-3.270;2023-12-04T05:22:56;1;1;
78408;PMS5003;67697;50.750;-3.270;2023-12-04T05:25:20;3;2;
78408;PMS5003;67697;50.750;-3.270;2023-12-04T05:27:46;3;3;
78408;PMS5003;67697;50.750;-3.270;2023-12-04T05:30:12;4;2;
78408;PMS5003;67697;50.750;-3.270;2023-12-04T05:32:37;2;2;
78408;PMS5003;67697;50.750;-3.270;2023-12-04T05:35:03;0;0;
78408;PMS5003;67697;50.750;-3.270;2023-12-04T05:37:29;5;1;
78408;PMS5003;67697;50.750;-3.270;2023-12-04T05:39:54;2;1;
78408;PMS5003;67697;50.750;-3.270;2023-12-04T05:42:20;2;0;
78408;PMS5003;67697;50.750;-3.270;2023-12-04T05:44:46;1;1;
78408;PMS5003;67697;50.750;-3.270;2023-12-04T05:47:11;2;2;
78408;PMS5003;67697;50.750;-3.270;2023-12-04T05:49:37;2;1;
78408;PMS5003;67697;50.750;-3.270;2023-12-04T05:52:03;2;0;
78408;PMS5003;67697;50.750;-3.270;2023-12-04T05:54:28;3;1;
78408;PMS5003;67697;50.750;-3.270;2023-12-04T05:56:54;1;1;
78408;PMS5003;67697;50.750;-3.270;2023-12-04T05:59:20;1;1;
78408;PMS5003;67697;50.750;-3.270;2023-12-04T06:01:45;1;0;
78408;PMS5003;67697;50.750;-3.270;2023-12-04T06:04:11;0;0;
78408;PMS5003;67697;50.750;-3.270;2023-12-04T06:06:37;0;0;
78408;PMS5003;67697;50.750;-3.270;2023-12-04T06:09:02;0;0;
78408;PMS5003;67697;50.750;-3.270;2023-12-04T06:11:28;2;2;
78408;PMS5003;67697;50.750;-3.270;2023-12-04T06:13:53;0;0;
78408;PMS5003;67697;50.750;-3.270;2023-12-04T06:16:19;1;1;
78408;PMS5003;67697;50.750;-3.270;2023-12-04T06:18:44;4;2;
78408;PMS5003;67697;50.750;-3.270;2023-12-04T06:21:10;0;0;
78408;PMS5003;67697;50.750;-3.270;2023-12-04T06:23:36;2;1;
78408;PMS5003;67697;50.750;-3.270;2023-12-04T06:26:02;1;1;
78408;PMS5003;67697;50.750;-3.270;2023-12-04T06:28:27;3;3;
78408;PMS5003;67697;50.750;-3.270;2023-12-04T06:30:53;3;1;
78408;PMS5003;67697;50.750;-3.270;2023-12-04T06:33:18;2;1;
78408;PMS5003;67697;50.750;-3.270;2023-12-04T06:35:44;1;1;
78408;PMS5003;67697;50.750;-3.270;2023-12-04T06:38:09;2;2;
78408;PMS5003;67697;50.750;-3.270;2023-12-04T06:40:35;1;1;
78408;PMS5003;67697;50.750;-3.270;2023-12-04T06:43:01;0;0;
78408;PMS5003;67697;50.750;-3.270;2023-12-04T06:45:27;0;0;
78408;PMS5003;67697;50.750;-3.270;2023-12-04T06:47:52;0;0;
78408;PMS5003;67697;50.750;-3.270;2023-12-04T06:50:18;0;0;
78408;PMS5003;67697;50.750;-3.270;2023-12-04T06:52:43;1;0;
78408;PMS5003;67697;50.750;-3.270;2023-12-04T06:55:09;2;0;
78408;PMS5003;67697;50.750;-3.270;2023-12-04T06:57:34;0;0;
78408;PMS5003;67697;50.750;-3.270;2023-12-04T07:00:00;3;1;
78408;PMS5003;67697;50.750;-3.270;2023-12-04T07:02:26;0;0;
78408;PMS5003;67697;50.750;-3.270;2023-12-04T07:04:51;0;0;
78408;PMS5003;67697;50.750;-3.270;2023-12-04T07:07:17;1;1;
78408;PMS5003;67697;50.750;-3.270;2023-12-04T07:09:43;2;2;
78408;PMS5003;67697;50.750;-3.270;2023-12-04T07:12:08;4;3;
78408;PMS5003;67697;50.750;-3.270;2023-12-04T07:14:34;2;2;
78408;PMS5003;67697;50.750;-3.270;2023-12-04T07:17:00;1;1;
78408;PMS5003;67697;50.750;-3.270;2023-12-04T07:19:25;4;4;
78408;PMS5003;67697;50.750;-3.270;2023-12-04T07:21:51;2;2;
78408;PMS5003;67697;50.750;-3.270;2023-12-04T07:24:17;5;4;
78408;PMS5003;67697;50.750;-3.270;2023-12-04T07:26:42;6;5;
78408;PMS5003;67697;50.750;-3.270;2023-12-04T07:29:08;7;4;
78408;PMS5003;67697;50.750;-3.270;2023-12-04T07:31:34;3;2;
78408;PMS5003;67697;50.750;-3.270;2023-12-04T07:33:59;2;2;
78408;PMS5003;67697;50.750;-3.270;2023-12-04T07:36:25;4;4;
78408;PMS5003;67697;50.750;-3.270;2023-12-04T07:38:51;3;3;
78408;PMS5003;67697;50.750;-3.270;2023-12-04T07:41:17;11;9;
78408;PMS5003;67697;50.750;-3.270;2023-12-04T07:43:42;8;8;
78408;PMS5003;67697;50.750;-3.270;2023-12-04T07:46:09;5;5;
78408;PMS5003;67697;50.750;-3.270;2023-12-04T07:48:33;5;3;
78408;PMS5003;67697;50.750;-3.270;2023-12-04T07:50:59;3;2;
78408;PMS5003;67697;50.750;-3.270;2023-12-04T07:53:24;2;2;
78408;PMS5003;67697;50.750;-3.270;2023-12-04T07:55:50;1;1;
78408;PMS5003;67697;50.750;-3.270;2023-12-04T07:58:16;1;1;
78408;PMS5003;67697;50.750;-3.270;2023-12-04T08:00:42;2;2;
78408;PMS5003;67697;50.750;-3.270;2023-12-04T08:03:07;2;2;
78408;PMS5003;67697;50.750;-3.270;2023-12-04T08:05:33;1;1;
78408;PMS5003;67697;50.750;-3.270;2023-12-04T08:07:58;0;0;
78408;PMS5003;67697;50.750;-3.270;2023-12-04T08:10:24;1;1;
78408;PMS5003;67697;50.750;-3.270;2023-12-04T08:12:50;2;2;
78408;PMS5003;67697;50.750;-3.270;2023-12-04T08:15:16;3;2;
78408;PMS5003;67697;50.750;-3.270;2023-12-04T08:17:41;2;2;
78408;PMS5003;67697;50.750;-3.270;2023-12-04T08:20:07;1;1;
78408;PMS5003;67697;50.750;-3.270;2023-12-04T08:22:32;2;2;
78408;PMS5003;67697;50.750;-3.270;2023-12-04T08:24:58;1;1;
78408;PMS5003;67697;50.750;-3.270;2023-12-04T08:27:24;3;1;
78408;PMS5003;67697;50.750;-3.270;2023-12-04T08:29:49;2;1;
78408;PMS5003;67697;50.750;-3.270;2023-12-04T08:32:15;2;2;
78408;PMS5003;67697;50.750;-3.270;2023-12-04T08:34:41;4;4;
78408;PMS5003;67697;50.750;-3.270;2023-12-04T08:37:06;5;4;
78408;PMS5003;67697;50.750;-3.270;2023-12-04T08:39:32;5;5;
78408;PMS5003;67697;50.750;-3.270;2023-12-04T08:41:58;4;4;
78408;PMS5003;67697;50.750;-3.270;2023-12-04T08:44:24;5;5;
78408;PMS5003;67697;50.750;-3.270;2023-12-04T08:46:49;10;8;
78408;PMS5003;67697;50.750;-3.270;2023-12-04T08:49:15;4;4;
78408;PMS5003;67697;50.750;-3.270;2023-12-04T08:51:41;8;5;
78408;PMS5003;67697;50.750;-3.270;2023-12-04T08:54:06;10;9;
78408;PMS5003;67697;50.750;-3.270;2023-12-04T08:56:32;12;11;
78408;PMS5003;67697;50.750;-3.270;2023-12-04T08:58:57;16;15;
78408;PMS5003;67697;50.750;-3.270;2023-12-04T09:01:23;24;21;
78408;PMS5003;67697;50.750;-3.270;2023-12-04T09:03:48;14;14;
78408;PMS5003;67697;50.750;-3.270;2023-12-04T09:06:14;11;7;
78408;PMS5003;67697;50.750;-3.270;2023-12-04T09:08:39;4;4;
78408;PMS5003;67697;50.750;-3.270;2023-12-04T09:11:05;1;1;
78408;PMS5003;67697;50.750;-3.270;2023-12-04T09:13:31;1;1;
78408;PMS5003;67697;50.750;-3.270;2023-12-04T09:15:56;2;2;
78408;PMS5003;67697;50.750;-3.270;2023-12-04T09:18:22;2;2;
78408;PMS5003;67697;50.750;-3.270;2023-12-04T09:20:48;1;1;
78408;PMS5003;67697;50.750;-3.270;2023-12-04T09:23:13;3;3;
78408;PMS5003;67697;50.750;-3.270;2023-12-04T09:25:39;2;1;
78408;PMS5003;67697;50.750;-3.270;2023-12-04T09:28:05;3;2;
78408;PMS5003;67697;50.750;-3.270;2023-12-04T09:30:30;2;2;
78408;PMS5003;67697;50.750;-3.270;2023-12-04T09:32:56;3;3;
78408;PMS5003;67697;50.750;-3.270;2023-12-04T09:35:22;4;4;
78408;PMS5003;67697;50.750;-3.270;2023-12-04T09:37:47;5;5;
78408;PMS5003;67697;50.750;-3.270;2023-12-04T09:40:13;4;3;
78408;PMS5003;67697;50.750;-3.270;2023-12-04T09:42:39;8;5;
78408;PMS5003;67697;50.750;-3.270;2023-12-04T09:45:05;4;4;
78408;PMS5003;67697;50.750;-3.270;2023-12-04T09:47:30;7;4;
78408;PMS5003;67697;50.750;-3.270;2023-12-04T09:49:56;4;4;
78408;PMS5003;67697;50.750;-3.270;2023-12-04T09:52:22;2;2;
78408;PMS5003;67697;50.750;-3.270;2023-12-04T09:54:47;3;3;
78408;PMS5003;67697;50.750;-3.270;2023-12-04T09:57:13;3;2;
78408;PMS5003;67697;50.750;-3.270;2023-12-04T09:59:38;3;3;
78408;PMS5003;67697;50.750;-3.270;2023-12-04T10:02:04;1;1;
78408;PMS5003;67697;50.750;-3.270;2023-12-04T10:04:30;7;4;
78408;PMS5003;67697;50.750;-3.270;2023-12-04T10:06:56;6;3;
78408;PMS5003;67697;50.750;-3.270;2023-12-04T10:09:21;6;3;
78408;PMS5003;67697;50.750;-3.270;2023-12-04T10:11:47;4;2;
78408;PMS5003;67697;50.750;-3.270;2023-12-04T10:14:15;4;4;
78408;PMS5003;67697;50.750;-3.270;2023-12-04T10:16:38;2;2;
78408;PMS5003;67697;50.750;-3.270;2023-12-04T10:21:32;3;3;
78408;PMS5003;67697;50.750;-3.270;2023-12-04T10:23:55;2;2;
78408;PMS5003;67697;50.750;-3.270;2023-12-04T10:26:21;2;2;
78408;PMS5003;67697;50.750;-3.270;2023-12-04T10:31:12;4;4;
78408;PMS5003;67697;50.750;-3.270;2023-12-04T10:33:38;2;2;
78408;PMS5003;67697;50.750;-3.270;2023-12-04T10:36:04;3;2;
78408;PMS5003;67697;50.750;-3.270;2023-12-04T10:38:29;2;2;
78408;PMS5003;67697;50.750;-3.270;2023-12-04T10:40:55;2;2;
78408;PMS5003;67697;50.750;-3.270;2023-12-04T10:43:21;1;1;
78408;PMS5003;67697;50.750;-3.270;2023-12-04T10:45:47;0;0;
78408;PMS5003;67697;50.750;-3.270;2023-12-04T10:48:12;0;0;
78408;PMS5003;67697;50.750;-3.270;2023-12-04T10:50:38;2;1;
78408;PMS5003;67697;50.750;-3.270;2023-12-04T10:53:03;0;0;
78408;PMS5003;67697;50.750;-3.270;2023-12-04T10:55:29;3;1;
78408;PMS5003;67697;50.750;-3.270;2023-12-04T10:57:55;1;1;
78408;PMS5003;67697;50.750;-3.270;2023-12-04T11:00:21;0;0;
78408;PMS5003;67697;50.750;-3.270;2023-12-04T11:02:46;0;0;
78408;PMS5003;67697;50.750;-3.270;2023-12-04T11:05:13;1;1;
78408;PMS5003;67697;50.750;-3.270;2023-12-04T11:07:38;2;2;
78408;PMS5003;67697;50.750;-3.270;2023-12-04T11:10:03;1;1;
78408;PMS5003;67697;50.750;-3.270;2023-12-04T11:12:29;1;1;
78408;PMS5003;67697;50.750;-3.270;2023-12-04T11:14:56;0;0;
78408;PMS5003;67697;50.750;-3.270;2023-12-04T11:17:20;0;0;
78408;PMS5003;67697;50.750;-3.270;2023-12-04T11:19:49;0;0;
78408;PMS5003;67697;50.750;-3.270;2023-12-04T11:22:12;0;0;
78408;PMS5003;67697;50.750;-3.270;2023-12-04T11:24:37;0;0;
78408;PMS5003;67697;50.750;-3.270;2023-12-04T11:27:03;0;0;
78408;PMS5003;67697;50.750;-3.270;2023-12-04T11:29:29;0;0;
78408;PMS5003;67697;50.750;-3.270;2023-12-04T11:31:55;0;0;
78408;PMS5003;67697;50.750;-3.270;2023-12-04T11:34:20;0;0;
78408;PMS5003;67697;50.750;-3.270;2023-12-04T11:36:46;0;0;
78408;PMS5003;67697;50.750;-3.270;2023-12-04T11:39:12;0;0;
78408;PMS5003;67697;50.750;-3.270;2023-12-04T11:41:37;0;0;
78408;PMS5003;67697;50.750;-3.270;2023-12-04T11:44:03;1;1;
78408;PMS5003;67697;50.750;-3.270;2023-12-04T11:46:29;10;9;
78408;PMS5003;67697;50.750;-3.270;2023-12-04T11:48:55;7;7;
78408;PMS5003;67697;50.750;-3.270;2023-12-04T11:53:46;3;3;
78408;PMS5003;67697;50.750;-3.270;2023-12-04T11:56:12;4;4;
78408;PMS5003;67697;50.750;-3.270;2023-12-04T11:58:42;4;4;
78408;PMS5003;67697;50.750;-3.270;2023-12-04T12:01:03;7;7;
78408;PMS5003;67697;50.750;-3.270;2023-12-04T12:03:28;9;9;
78408;PMS5003;67697;50.750;-3.270;2023-12-04T12:05:54;3;1;
78408;PMS5003;67697;50.750;-3.270;2023-12-04T12:08:20;3;1;
78408;PMS5003;67697;50.750;-3.270;2023-12-04T12:10:45;3;1;
78408;PMS5003;67697;50.750;-3.270;2023-12-04T12:13:11;1;1;
78408;PMS5003;67697;50.750;-3.270;2023-12-04T12:15:37;2;2;
78408;PMS5003;67697;50.750;-3.270;2023-12-04T12:18:03;1;1;
78408;PMS5003;67697;50.750;-3.270;2023-12-04T12:20:28;7;2;
78408;PMS5003;67697;50.750;-3.270;2023-12-04T12:22:54;6;4;
78408;PMS5003;67697;50.750;-3.270;2023-12-04T12:25:19;3;3;
78408;PMS5003;67697;50.750;-3.270;2023-12-04T12:27:45;6;3;
78408;PMS5003;67697;50.750;-3.270;2023-12-04T12:30:11;3;2;
78408;PMS5003;67697;50.750;-3.270;2023-12-04T12:32:36;4;3;
78408;PMS5003;67697;50.750;-3.270;2023-12-04T12:35:02;2;1;
78408;PMS5003;67697;50.750;-3.270;2023-12-04T12:37:28;1;1;
78408;PMS5003;67697;50.750;-3.270;2023-12-04T12:39:53;2;2;
78408;PMS5003;67697;50.750;-3.270;2023-12-04T12:42:21;1;1;
78408;PMS5003;67697;50.750;-3.270;2023-12-04T12:44:45;2;2;
78408;PMS5003;67697;50.750;-3.270;2023-12-04T12:47:11;1;0;
78408;PMS5003;67697;50.750;-3.270;2023-12-04T12:49:36;1;1;
78408;PMS5003;67697;50.750;-3.270;2023-12-04T12:52:02;1;1;
78408;PMS5003;67697;50.750;-3.270;2023-12-04T12:54:28;1;1;
78408;PMS5003;67697;50.750;-3.270;2023-12-04T12:56:53;1;1;
78408;PMS5003;67697;50.750;-3.270;2023-12-04T12:59:19;1;1;
78408;PMS5003;67697;50.750;-3.270;2023-12-04T13:01:45;1;1;
78408;PMS5003;67697;50.750;-3.270;2023-12-04T13:04:13;1;1;
78408;PMS5003;67697;50.750;-3.270;2023-12-04T13:06:36;1;1;
78408;PMS5003;67697;50.750;-3.270;2023-12-04T13:09:02;1;1;
78408;PMS5003;67697;50.750;-3.270;2023-12-04T13:11:27;2;1;
78408;PMS5003;67697;50.750;-3.270;2023-12-04T13:13:53;0;0;
78408;PMS5003;67697;50.750;-3.270;2023-12-04T13:16:19;0;0;
78408;PMS5003;67697;50.750;-3.270;2023-12-04T13:18:44;1;1;
78408;PMS5003;67697;50.750;-3.270;2023-12-04T13:21:10;2;2;
78408;PMS5003;67697;50.750;-3.270;2023-12-04T13:23:36;1;1;
78408;PMS5003;67697;50.750;-3.270;2023-12-04T13:26:02;1;1;
78408;PMS5003;67697;50.750;-3.270;2023-12-04T13:28:27;3;1;
78408;PMS5003;67697;50.750;-3.270;2023-12-04T13:30:53;0;0;
78408;PMS5003;67697;50.750;-3.270;2023-12-04T13:33:18;2;2;
78408;PMS5003;67697;50.750;-3.270;2023-12-04T13:35:44;2;1;
78408;PMS5003;67697;50.750;-3.270;2023-12-04T13:38:10;0;0;
78408;PMS5003;67697;50.750;-3.270;2023-12-04T13:40:36;2;2;
78408;PMS5003;67697;50.750;-3.270;2023-12-04T13:43:01;1;1;
78408;PMS5003;67697;50.750;-3.270;2023-12-04T13:45:27;1;1;
78408;PMS5003;67697;50.750;-3.270;2023-12-04T13:47:52;1;1;
78408;PMS5003;67697;50.750;-3.270;2023-12-04T13:50:18;3;2;
78408;PMS5003;67697;50.750;-3.270;2023-12-04T13:52:44;1;1;
78408;PMS5003;67697;50.750;-3.270;2023-12-04T13:55:10;0;0;
78408;PMS5003;67697;50.750;-3.270;2023-12-04T13:57:35;1;1;
78408;PMS5003;67697;50.750;-3.270;2023-12-04T14:00:01;3;2;
78408;PMS5003;67697;50.750;-3.270;2023-12-04T14:02:27;3;2;
78408;PMS5003;67697;50.750;-3.270;2023-12-04T14:04:52;1;1;
78408;PMS5003;67697;50.750;-3.270;2023-12-04T14:07:18;3;3;
78408;PMS5003;67697;50.750;-3.270;2023-12-04T14:09:44;3;3;
78408;PMS5003;67697;50.750;-3.270;2023-12-04T14:12:09;2;2;
78408;PMS5003;67697;50.750;-3.270;2023-12-04T14:14:35;2;2;
78408;PMS5003;67697;50.750;-3.270;2023-12-04T14:17:00;5;3;
78408;PMS5003;67697;50.750;-3.270;2023-12-04T14:19:26;4;3;
78408;PMS5003;67697;50.750;-3.270;2023-12-04T14:21:52;3;3;
78408;PMS5003;67697;50.750;-3.270;2023-12-04T14:24:17;2;2;
78408;PMS5003;67697;50.750;-3.270;2023-12-04T14:26:43;1;1;
78408;PMS5003;67697;50.750;-3.270;2023-12-04T14:29:09;2;2;
78408;PMS5003;67697;50.750;-3.270;2023-12-04T14:31:34;2;2;
78408;PMS5003;67697;50.750;-3.270;2023-12-04T14:34:00;3;2;
78408;PMS5003;67697;50.750;-3.270;2023-12-04T14:36:26;3;3;
78408;PMS5003;67697;50.750;-3.270;2023-12-04T14:38:52;4;4;
78408;PMS5003;67697;50.750;-3.270;2023-12-04T14:41:17;2;2;
78408;PMS5003;67697;50.750;-3.270;2023-12-04T14:43:43;3;3;
78408;PMS5003;67697;50.750;-3.270;2023-12-04T14:46:09;2;2;
78408;PMS5003;67697;50.750;-3.270;2023-12-04T14:48:36;2;2;
78408;PMS5003;67697;50.750;-3.270;2023-12-04T14:51:00;2;2;
78408;PMS5003;67697;50.750;-3.270;2023-12-04T14:53:26;1;1;
78408;PMS5003;67697;50.750;-3.270;2023-12-04T14:55:52;2;2;
78408;PMS5003;67697;50.750;-3.270;2023-12-04T14:58:17;1;1;
78408;PMS5003;67697;50.750;-3.270;2023-12-04T15:00:43;1;1;
78408;PMS5003;67697;50.750;-3.270;2023-12-04T15:03:09;3;2;
78408;PMS5003;67697;50.750;-3.270;2023-12-04T15:05:34;1;1;
78408;PMS5003;67697;50.750;-3.270;2023-12-04T15:08:00;5;2;
78408;PMS5003;67697;50.750;-3.270;2023-12-04T15:10:26;2;1;
78408;PMS5003;67697;50.750;-3.270;2023-12-04T15:12:52;2;2;
78408;PMS5003;67697;50.750;-3.270;2023-12-04T15:15:17;1;1;
78408;PMS5003;67697;50.750;-3.270;2023-12-04T15:17:43;3;3;
78408;PMS5003;67697;50.750;-3.270;2023-12-04T15:20:09;1;1;
78408;PMS5003;67697;50.750;-3.270;2023-12-04T15:22:35;3;2;
78408;PMS5003;67697;50.750;-3.270;2023-12-04T15:25:00;5;5;
78408;PMS5003;67697;50.750;-3.270;2023-12-04T15:27:26;2;2;
78408;PMS5003;67697;50.750;-3.270;2023-12-04T15:29:52;2;2;
78408;PMS5003;67697;50.750;-3.270;2023-12-04T15:32:18;5;5;
78408;PMS5003;67697;50.750;-3.270;2023-12-04T15:34:43;3;3;
78408;PMS5003;67697;50.750;-3.270;2023-12-04T15:37:09;5;3;
78408;PMS5003;67697;50.750;-3.270;2023-12-04T15:39:34;5;5;
78408;PMS5003;67697;50.750;-3.270;2023-12-04T15:42:00;5;3;
78408;PMS5003;67697;50.750;-3.270;2023-12-04T15:44:26;3;3;
78408;PMS5003;67697;50.750;-3.270;2023-12-04T15:46:52;1;1;
78408;PMS5003;67697;50.750;-3.270;2023-12-04T15:49:17;2;2;
78408;PMS5003;67697;50.750;-3.270;2023-12-04T15:51:43;2;2;
78408;PMS5003;67697;50.750;-3.270;2023-12-04T15:54:09;2;2;
78408;PMS5003;67697;50.750;-3.270;2023-12-04T15:56:35;3;3;
78408;PMS5003;67697;50.750;-3.270;2023-12-04T15:59:00;6;5;
78408;PMS5003;67697;50.750;-3.270;2023-12-04T16:01:26;5;5;
78408;PMS5003;67697;50.750;-3.270;2023-12-04T16:03:52;2;2;
78408;PMS5003;67697;50.750;-3.270;2023-12-04T16:06:18;3;3;
78408;PMS5003;67697;50.750;-3.270;2023-12-04T16:08:43;7;6;
78408;PMS5003;67697;50.750;-3.270;2023-12-04T16:11:09;6;6;
78408;PMS5003;67697;50.750;-3.270;2023-12-04T16:13:35;7;7;
78408;PMS5003;67697;50.750;-3.270;2023-12-04T16:16:01;8;7;
78408;PMS5003;67697;50.750;-3.270;2023-12-04T16:18:26;5;2;
78408;PMS5003;67697;50.750;-3.270;2023-12-04T16:20:52;7;7;
78408;PMS5003;67697;50.750;-3.270;2023-12-04T16:23:18;3;3;
78408;PMS5003;67697;50.750;-3.270;2023-12-04T16:25:43;6;6;
78408;PMS5003;67697;50.750;-3.270;2023-12-04T16:28:09;7;7;
78408;PMS5003;67697;50.750;-3.270;2023-12-04T16:30:35;7;5;
78408;PMS5003;67697;50.750;-3.270;2023-12-04T16:33:01;11;8;